sensor_id;sensor_type;location;lat;lon;timestamp;pressure;altitude;pressure_sealevel;temperature;humidity
31225;BME280;17847;31.524;74.366;2023-12-14T00:02:09;99123.75;;;12.00;nan
31225;BME280;17847;31.524;74.366;2023-12-14T00:04:38;99121.56;;;12.03;nan
31225;BME280;17847;31.524;74.366;2023-12-14T00:07:07;99121.75;;;12.02;nan
31225;BME280;17847;31.524;74.366;2023-12-14T00:09:37;99134.84;;;12.03;nan
31225;BME280;17847;31.524;74.366;2023-12-14T00:12:07;99131.09;;;11.98;nan
31225;BME280;17847;31.524;74.366;2023-12-14T00:14:37;99130.78;;;12.07;nan
31225;BME280;17847;31.524;74.366;2023-12-14T00:17:06;99127.31;;;12.07;nan
31225;BME280;17847;31.524;74.366;2023-12-14T00:19:36;99125.47;;;12.07;nan
31225;BME280;17847;31.524;74.366;2023-12-14T00:22:05;99129.97;;;12.07;nan
31225;BME280;17847;31.524;74.366;2023-12-14T00:24:35;99128.69;;;12.03;nan
31225;BME280;17847;31.524;74.366;2023-12-14T00:27:05;99134.38;;;12.00;nan
31225;BME280;17847;31.524;74.366;2023-12-14T00:29:34;99127.31;;;11.86;nan
31225;BME280;17847;31.524;74.366;2023-12-14T00:32:04;99127.94;;;11.88;nan
31225;BME280;17847;31.524;74.366;2023-12-14T00:34:35;99122.38;;;11.83;nan
31225;BME280;17847;31.524;74.366;2023-12-14T00:37:05;99131.28;;;11.75;nan
31225;BME280;17847;31.524;74.366;2023-12-14T00:39:34;99124.41;;;11.81;nan
31225;BME280;17847;31.524;74.366;2023-12-14T00:42:04;99132.63;;;11.86;nan
31225;BME280;17847;31.524;74.366;2023-12-14T00:44:34;99133.75;;;11.98;nan
31225;BME280;17847;31.524;74.366;2023-12-14T00:47:04;99132.53;;;12.00;nan
31225;BME280;17847;31.524;74.366;2023-12-14T00:49:33;99119.69;;;12.04;nan
31225;BME280;17847;31.524;74.366;2023-12-14T00:52:03;99117.38;;;12.15;nan
31225;BME280;17847;31.524;74.366;2023-12-14T00:54:33;99117.75;;;12.12;nan
31225;BME280;17847;31.524;74.366;2023-12-14T00:57:04;99116.53;;;12.15;nan
31225;BME280;17847;31.524;74.366;2023-12-14T00:59:33;99117.97;;;12.18;nan
31225;BME280;17847;31.524;74.366;2023-12-14T01:02:03;99121.59;;;12.10;nan
31225;BME280;17847;31.524;74.366;2023-12-14T01:04:33;99124.66;;;12.07;nan
31225;BME280;17847;31.524;74.366;2023-12-14T01:07:04;99129.00;;;11.93;nan
31225;BME280;17847;31.524;74.366;2023-12-14T01:09:34;99130.03;;;11.92;nan
31225;BME280;17847;31.524;74.366;2023-12-14T01:12:04;99128.00;;;11.73;nan
31225;BME280;17847;31.524;74.366;2023-12-14T01:14:34;99130.78;;;11.86;nan
31225;BME280;17847;31.524;74.366;2023-12-14T01:17:03;99132.94;;;11.97;nan
31225;BME280;17847;31.524;74.366;2023-12-14T01:19:33;99131.97;;;12.05;nan
31225;BME280;17847;31.524;74.366;2023-12-14T01:22:03;99128.50;;;12.04;nan
31225;BME280;17847;31.524;74.366;2023-12-14T01:24:32;99130.09;;;11.99;nan
31225;BME280;17847;31.524;74.366;2023-12-14T01:27:02;99130.88;;;11.99;nan
31225;BME280;17847;31.524;74.366;2023-12-14T01:29:32;99130.09;;;11.99;nan
31225;BME280;17847;31.524;74.366;2023-12-14T01:32:01;99124.81;;;12.05;nan
31225;BME280;17847;31.524;74.366;2023-12-14T01:34:31;99133.94;;;11.96;nan
31225;BME280;17847;31.524;74.366;2023-12-14T01:37:00;99130.09;;;11.99;nan
31225;BME280;17847;31.524;74.366;2023-12-14T01:39:30;99127.94;;;11.88;nan
31225;BME280;17847;31.524;74.366;2023-12-14T01:41:59;99130.19;;;11.91;nan
31225;BME280;17847;31.524;74.366;2023-12-14T01:44:28;99139.81;;;11.92;nan
31225;BME280;17847;31.524;74.366;2023-12-14T01:46:58;99139.19;;;11.90;nan
31225;BME280;17847;31.524;74.366;2023-12-14T01:49:27;99144.69;;;11.88;nan
31225;BME280;17847;31.524;74.366;2023-12-14T01:51:57;99142.31;;;11.57;nan
31225;BME280;17847;31.524;74.366;2023-12-14T01:54:26;99148.56;;;11.50;nan
31225;BME280;17847;31.524;74.366;2023-12-14T01:56:56;99144.53;;;11.39;nan
31225;BME280;17847;31.524;74.366;2023-12-14T01:59:25;99146.94;;;11.34;nan
31225;BME280;17847;31.524;74.366;2023-12-14T02:01:56;99140.50;;;11.43;nan
31225;BME280;17847;31.524;74.366;2023-12-14T02:04:26;99140.06;;;11.40;nan
31225;BME280;17847;31.524;74.366;2023-12-14T02:06:55;99142.22;;;11.15;nan
31225;BME280;17847;31.524;74.366;2023-12-14T02:09:25;99140.91;;;11.25;nan
31225;BME280;17847;31.524;74.366;2023-12-14T02:11:54;99151.81;;;11.16;nan
31225;BME280;17847;31.524;74.366;2023-12-14T02:14:24;99147.91;;;10.97;nan
31225;BME280;17847;31.524;74.366;2023-12-14T02:16:53;99155.56;;;11.21;nan
31225;BME280;17847;31.524;74.366;2023-12-14T02:19:23;99154.16;;;11.40;nan
31225;BME280;17847;31.524;74.366;2023-12-14T02:21:52;99156.28;;;11.15;nan
31225;BME280;17847;31.524;74.366;2023-12-14T02:24:22;99165.06;;;11.16;nan
31225;BME280;17847;31.524;74.366;2023-12-14T02:26:51;99174.00;;;11.30;nan
31225;BME280;17847;31.524;74.366;2023-12-14T02:29:29;99171.44;;;11.36;nan
31225;BME280;17847;31.524;74.366;2023-12-14T02:32:00;99177.03;;;11.41;nan
31225;BME280;17847;31.524;74.366;2023-12-14T02:34:29;99177.09;;;11.48;nan
31225;BME280;17847;31.524;74.366;2023-12-14T02:36:59;99177.84;;;11.42;nan
31225;BME280;17847;31.524;74.366;2023-12-14T02:39:28;99178.13;;;11.32;nan
31225;BME280;17847;31.524;74.366;2023-12-14T02:41:58;99176.75;;;11.36;nan
31225;BME280;17847;31.524;74.366;2023-12-14T02:44:27;99185.44;;;11.66;nan
31225;BME280;17847;31.524;74.366;2023-12-14T02:46:57;99178.16;;;11.68;nan
31225;BME280;17847;31.524;74.366;2023-12-14T02:49:26;99184.69;;;11.87;nan
31225;BME280;17847;31.524;74.366;2023-12-14T02:51:56;99181.66;;;11.90;nan
31225;BME280;17847;31.524;74.366;2023-12-14T02:54:25;99190.38;;;11.69;nan
31225;BME280;17847;31.524;74.366;2023-12-14T02:56:55;99196.06;;;11.81;nan
31225;BME280;17847;31.524;74.366;2023-12-14T02:59:25;99197.06;;;12.01;nan
31225;BME280;17847;31.524;74.366;2023-12-14T03:01:54;99206.75;;;12.08;nan
31225;BME280;17847;31.524;74.366;2023-12-14T03:04:23;99207.44;;;11.96;nan
31225;BME280;17847;31.524;74.366;2023-12-14T03:06:53;99208.69;;;12.00;nan
31225;BME280;17847;31.524;74.366;2023-12-14T03:09:24;99209.84;;;12.12;nan
31225;BME280;17847;31.524;74.366;2023-12-14T03:11:54;99213.78;;;12.16;nan
31225;BME280;17847;31.524;74.366;2023-12-14T03:14:23;99221.66;;;12.31;nan
31225;BME280;17847;31.524;74.366;2023-12-14T03:16:53;99223.38;;;12.38;nan
31225;BME280;17847;31.524;74.366;2023-12-14T03:19:23;99225.06;;;12.46;nan
31225;BME280;17847;31.524;74.366;2023-12-14T03:21:52;99221.38;;;12.68;nan
31225;BME280;17847;31.524;74.366;2023-12-14T03:24:21;99229.25;;;12.83;nan
31225;BME280;17847;31.524;74.366;2023-12-14T03:26:51;99226.44;;;13.19;nan
31225;BME280;17847;31.524;74.366;2023-12-14T03:29:20;99231.78;;;13.66;nan
31225;BME280;17847;31.524;74.366;2023-12-14T03:31:50;99227.78;;;14.16;nan
31225;BME280;17847;31.524;74.366;2023-12-14T03:34:19;99241.19;;;14.62;nan
31225;BME280;17847;31.524;74.366;2023-12-14T03:36:49;99242.84;;;14.90;nan
31225;BME280;17847;31.524;74.366;2023-12-14T03:39:19;99253.91;;;15.13;nan
31225;BME280;17847;31.524;74.366;2023-12-14T03:41:48;99256.72;;;15.31;nan
31225;BME280;17847;31.524;74.366;2023-12-14T03:44:18;99260.31;;;15.69;nan
31225;BME280;17847;31.524;74.366;2023-12-14T03:46:48;99263.91;;;15.95;nan
31225;BME280;17847;31.524;74.366;2023-12-14T03:49:18;99271.78;;;16.21;nan
31225;BME280;17847;31.524;74.366;2023-12-14T03:51:47;99270.63;;;16.10;nan
31225;BME280;17847;31.524;74.366;2023-12-14T03:54:17;99272.97;;;16.56;nan
31225;BME280;17847;31.524;74.366;2023-12-14T03:56:46;99278.59;;;16.80;nan
31225;BME280;17847;31.524;74.366;2023-12-14T03:59:15;99286.22;;;17.26;nan
31225;BME280;17847;31.524;74.366;2023-12-14T04:01:45;99283.09;;;17.29;nan
31225;BME280;17847;31.524;74.366;2023-12-14T04:04:14;99294.69;;;17.41;nan
31225;BME280;17847;31.524;74.366;2023-12-14T04:06:44;99299.28;;;17.77;nan
31225;BME280;17847;31.524;74.366;2023-12-14T04:09:14;99304.69;;;18.07;nan
31225;BME280;17847;31.524;74.366;2023-12-14T04:11:44;99311.66;;;18.56;nan
31225;BME280;17847;31.524;74.366;2023-12-14T04:14:13;99320.47;;;18.45;nan
31225;BME280;17847;31.524;74.366;2023-12-14T04:16:42;99309.34;;;18.59;nan
31225;BME280;17847;31.524;74.366;2023-12-14T04:19:12;99312.81;;;18.90;nan
31225;BME280;17847;31.524;74.366;2023-12-14T04:21:42;99322.97;;;18.99;nan
31225;BME280;17847;31.524;74.366;2023-12-14T04:24:11;99329.63;;;18.97;nan
31225;BME280;17847;31.524;74.366;2023-12-14T04:26:41;99329.31;;;19.28;nan
31225;BME280;17847;31.524;74.366;2023-12-14T04:29:10;99335.38;;;19.70;nan
31225;BME280;17847;31.524;74.366;2023-12-14T04:31:41;99341.34;;;19.37;nan
31225;BME280;17847;31.524;74.366;2023-12-14T04:34:11;99342.53;;;19.64;nan
31225;BME280;17847;31.524;74.366;2023-12-14T04:36:45;99333.06;;;19.73;nan
31225;BME280;17847;31.524;74.366;2023-12-14T04:39:15;99342.41;;;19.48;nan
31225;BME280;17847;31.524;74.366;2023-12-14T04:41:45;99348.50;;;19.55;nan
31225;BME280;17847;31.524;74.366;2023-12-14T04:44:15;99356.22;;;19.51;nan
31225;BME280;17847;31.524;74.366;2023-12-14T04:46:45;99358.47;;;19.13;nan
31225;BME280;17847;31.524;74.366;2023-12-14T04:49:14;99357.56;;;18.66;nan
31225;BME280;17847;31.524;74.366;2023-12-14T04:51:44;99357.06;;;18.57;nan
31225;BME280;17847;31.524;74.366;2023-12-14T04:54:14;99359.56;;;18.22;nan
31225;BME280;17847;31.524;74.366;2023-12-14T04:56:46;99359.72;;;18.27;nan
31225;BME280;17847;31.524;74.366;2023-12-14T04:59:16;99357.47;;;18.06;nan
31225;BME280;17847;31.524;74.366;2023-12-14T05:01:45;99358.16;;;18.02;nan
31225;BME280;17847;31.524;74.366;2023-12-14T05:04:15;99355.09;;;17.98;nan
31225;BME280;17847;31.524;74.366;2023-12-14T05:06:44;99351.53;;;18.04;nan
31225;BME280;17847;31.524;74.366;2023-12-14T05:09:14;99352.34;;;18.05;nan
31225;BME280;17847;31.524;74.366;2023-12-14T05:11:44;99351.03;;;17.95;nan
31225;BME280;17847;31.524;74.366;2023-12-14T05:56:59;99312.13;;;18.53;nan
31225;BME280;17847;31.524;74.366;2023-12-14T05:59:28;99314.28;;;18.74;nan
31225;BME280;17847;31.524;74.366;2023-12-14T06:01:59;99314.06;;;18.75;nan
31225;BME280;17847;31.524;74.366;2023-12-14T06:04:29;99309.44;;;18.53;nan
31225;BME280;17847;31.524;74.366;2023-12-14T06:06:58;99307.63;;;18.35;nan
31225;BME280;17847;31.524;74.366;2023-12-14T06:09:28;99301.69;;;18.45;nan
31225;BME280;17847;31.524;74.366;2023-12-14T06:12:04;99303.44;;;18.39;nan
31225;BME280;17847;31.524;74.366;2023-12-14T06:14:33;99305.31;;;18.50;nan
31225;BME280;17847;31.524;74.366;2023-12-14T06:17:04;99303.81;;;18.84;nan
31225;BME280;17847;31.524;74.366;2023-12-14T06:19:34;99298.75;;;18.64;nan
31225;BME280;17847;31.524;74.366;2023-12-14T06:22:03;99295.38;;;18.69;nan
31225;BME280;17847;31.524;74.366;2023-12-14T06:24:33;99279.38;;;18.62;nan
31225;BME280;17847;31.524;74.366;2023-12-14T06:27:02;99288.25;;;18.63;nan
31225;BME280;17847;31.524;74.366;2023-12-14T06:29:32;99278.38;;;18.87;nan
31225;BME280;17847;31.524;74.366;2023-12-14T06:32:02;99275.09;;;18.43;nan
31225;BME280;17847;31.524;74.366;2023-12-14T06:34:32;99285.25;;;18.82;nan
31225;BME280;17847;31.524;74.366;2023-12-14T06:37:01;99273.72;;;19.28;nan
31225;BME280;17847;31.524;74.366;2023-12-14T06:39:31;99276.38;;;19.40;nan
31225;BME280;17847;31.524;74.366;2023-12-14T06:42:01;99269.63;;;19.26;nan
31225;BME280;17847;31.524;74.366;2023-12-14T06:44:30;99260.84;;;19.30;nan
31225;BME280;17847;31.524;74.366;2023-12-14T06:47:01;99252.34;;;19.22;nan
31225;BME280;17847;31.524;74.366;2023-12-14T06:49:30;99247.22;;;19.20;nan
31225;BME280;17847;31.524;74.366;2023-12-14T06:52:00;99252.22;;;19.52;nan
31225;BME280;17847;31.524;74.366;2023-12-14T06:54:30;99250.72;;;19.44;nan
31225;BME280;17847;31.524;74.366;2023-12-14T06:56:59;99236.03;;;19.75;nan
31225;BME280;17847;31.524;74.366;2023-12-14T06:59:28;99241.28;;;19.82;nan
31225;BME280;17847;31.524;74.366;2023-12-14T07:01:58;99242.16;;;19.99;nan
31225;BME280;17847;31.524;74.366;2023-12-14T07:04:27;99241.03;;;19.83;nan
31225;BME280;17847;31.524;74.366;2023-12-14T07:06:57;99236.00;;;19.87;nan
31225;BME280;17847;31.524;74.366;2023-12-14T07:09:27;99236.19;;;19.68;nan
31225;BME280;17847;31.524;74.366;2023-12-14T07:11:57;99233.19;;;19.53;nan
31225;BME280;17847;31.524;74.366;2023-12-14T07:14:31;99236.56;;;19.60;nan
31225;BME280;17847;31.524;74.366;2023-12-14T07:17:01;99229.06;;;19.62;nan
31225;BME280;17847;31.524;74.366;2023-12-14T07:19:30;99215.56;;;19.22;nan
31225;BME280;17847;31.524;74.366;2023-12-14T07:22:01;99211.69;;;19.30;nan
31225;BME280;17847;31.524;74.366;2023-12-14T07:24:30;99210.97;;;19.35;nan
31225;BME280;17847;31.524;74.366;2023-12-14T07:27:07;99214.47;;;19.58;nan
31225;BME280;17847;31.524;74.366;2023-12-14T07:29:55;99225.72;;;19.55;nan
31225;BME280;17847;31.524;74.366;2023-12-14T07:32:44;99211.56;;;19.60;nan
31225;BME280;17847;31.524;74.366;2023-12-14T07:35:34;99199.41;;;19.57;nan
31225;BME280;17847;31.524;74.366;2023-12-14T07:38:24;99195.78;;;19.52;nan
31225;BME280;17847;31.524;74.366;2023-12-14T07:41:14;99196.59;;;19.64;nan
31225;BME280;17847;31.524;74.366;2023-12-14T07:44:04;99188.56;;;19.41;nan
31225;BME280;17847;31.524;74.366;2023-12-14T07:46:54;99188.50;;;19.01;nan
31225;BME280;17847;31.524;74.366;2023-12-14T07:49:45;99185.22;;;19.10;nan
31225;BME280;17847;31.524;74.366;2023-12-14T07:52:35;99185.53;;;19.25;nan
31225;BME280;17847;31.524;74.366;2023-12-14T07:55:25;99177.97;;;19.22;nan
31225;BME280;17847;31.524;74.366;2023-12-14T07:58:15;99178.69;;;19.18;nan
31225;BME280;17847;31.524;74.366;2023-12-14T08:01:05;99176.34;;;19.10;nan
31225;BME280;17847;31.524;74.366;2023-12-14T08:03:55;99186.41;;;18.79;nan
31225;BME280;17847;31.524;74.366;2023-12-14T08:06:45;99176.13;;;18.76;nan
31225;BME280;17847;31.524;74.366;2023-12-14T08:09:35;99175.78;;;18.73;nan
31225;BME280;17847;31.524;74.366;2023-12-14T08:12:25;99169.84;;;18.71;nan
31225;BME280;17847;31.524;74.366;2023-12-14T08:15:15;99154.78;;;18.70;nan
31225;BME280;17847;31.524;74.366;2023-12-14T08:18:05;99161.53;;;18.96;nan
31225;BME280;17847;31.524;74.366;2023-12-14T08:20:56;99157.56;;;19.10;nan
31225;BME280;17847;31.524;74.366;2023-12-14T08:23:46;99155.91;;;19.20;nan
31225;BME280;17847;31.524;74.366;2023-12-14T08:26:36;99147.28;;;19.18;nan
31225;BME280;17847;31.524;74.366;2023-12-14T08:29:26;99148.88;;;19.31;nan
31225;BME280;17847;31.524;74.366;2023-12-14T08:32:16;99144.34;;;19.20;nan
31225;BME280;17847;31.524;74.366;2023-12-14T08:35:07;99141.03;;;19.41;nan
31225;BME280;17847;31.524;74.366;2023-12-14T08:37:57;99132.75;;;19.31;nan
31225;BME280;17847;31.524;74.366;2023-12-14T08:40:47;99129.44;;;19.52;nan
31225;BME280;17847;31.524;74.366;2023-12-14T08:43:37;99136.47;;;19.42;nan
31225;BME280;17847;31.524;74.366;2023-12-14T08:46:26;99123.19;;;19.47;nan
31225;BME280;17847;31.524;74.366;2023-12-14T08:49:17;99131.56;;;19.50;nan
31225;BME280;17847;31.524;74.366;2023-12-14T08:52:06;99131.91;;;19.54;nan
31225;BME280;17847;31.524;74.366;2023-12-14T08:54:56;99128.78;;;19.45;nan
31225;BME280;17847;31.524;74.366;2023-12-14T08:57:46;99119.19;;;19.38;nan
31225;BME280;17847;31.524;74.366;2023-12-14T09:00:36;99117.63;;;19.53;nan
31225;BME280;17847;31.524;74.366;2023-12-14T09:03:26;99113.56;;;19.51;nan
31225;BME280;17847;31.524;74.366;2023-12-14T09:06:17;99117.25;;;19.61;nan
31225;BME280;17847;31.524;74.366;2023-12-14T09:09:07;99124.13;;;19.29;nan
31225;BME280;17847;31.524;74.366;2023-12-14T09:11:58;99110.97;;;19.16;nan
31225;BME280;17847;31.524;74.366;2023-12-14T09:14:48;99105.66;;;19.33;nan
31225;BME280;17847;31.524;74.366;2023-12-14T09:31:17;99113.41;;;19.29;nan
31225;BME280;17847;31.524;74.366;2023-12-14T09:33:48;99110.06;;;19.39;nan
31225;BME280;17847;31.524;74.366;2023-12-14T09:36:17;99111.13;;;19.49;nan
31225;BME280;17847;31.524;74.366;2023-12-14T09:38:47;99098.75;;;19.37;nan
31225;BME280;17847;31.524;74.366;2023-12-14T10:23:24;99101.34;;;18.45;nan
31225;BME280;17847;31.524;74.366;2023-12-14T10:25:54;99104.59;;;18.47;nan
31225;BME280;17847;31.524;74.366;2023-12-14T10:28:23;99110.72;;;18.54;nan
31225;BME280;17847;31.524;74.366;2023-12-14T10:30:53;99096.78;;;18.46;nan
31225;BME280;17847;31.524;74.366;2023-12-14T10:33:22;99090.72;;;18.38;nan
31225;BME280;17847;31.524;74.366;2023-12-14T10:35:52;99092.16;;;18.53;nan
31225;BME280;17847;31.524;74.366;2023-12-14T10:38:21;99082.81;;;18.55;nan
31225;BME280;17847;31.524;74.366;2023-12-14T10:40:55;99081.53;;;18.34;nan
31225;BME280;17847;31.524;74.366;2023-12-14T10:43:27;99083.38;;;18.46;nan
31225;BME280;17847;31.524;74.366;2023-12-14T10:46:14;99081.03;;;18.37;nan
31225;BME280;17847;31.524;74.366;2023-12-14T10:48:45;99079.09;;;18.45;nan
31225;BME280;17847;31.524;74.366;2023-12-14T10:51:21;99078.97;;;18.39;nan
31225;BME280;17847;31.524;74.366;2023-12-14T10:53:51;99080.94;;;18.44;nan
31225;BME280;17847;31.524;74.366;2023-12-14T10:56:22;99088.63;;;18.52;nan
31225;BME280;17847;31.524;74.366;2023-12-14T10:58:56;99089.34;;;18.59;nan
31225;BME280;17847;31.524;74.366;2023-12-14T11:01:26;99082.91;;;18.37;nan
31225;BME280;17847;31.524;74.366;2023-12-14T11:03:59;99094.47;;;18.26;nan
31225;BME280;17847;31.524;74.366;2023-12-14T11:06:30;99090.50;;;18.28;nan
31225;BME280;17847;31.524;74.366;2023-12-14T11:09:02;99084.66;;;18.20;nan
31225;BME280;17847;31.524;74.366;2023-12-14T11:14:23;99076.13;;;18.11;nan
31225;BME280;17847;31.524;74.366;2023-12-14T11:16:55;99073.69;;;17.98;nan
31225;BME280;17847;31.524;74.366;2023-12-14T11:19:26;99069.03;;;18.05;nan
31225;BME280;17847;31.524;74.366;2023-12-14T11:22:13;99065.66;;;18.10;nan
31225;BME280;17847;31.524;74.366;2023-12-14T11:24:54;99060.06;;;18.00;nan
31225;BME280;17847;31.524;74.366;2023-12-14T11:27:29;99065.97;;;17.90;nan
31225;BME280;17847;31.524;74.366;2023-12-14T11:30:00;99071.94;;;17.92;nan
31225;BME280;17847;31.524;74.366;2023-12-14T11:32:31;99073.75;;;17.68;nan
31225;BME280;17847;31.524;74.366;2023-12-14T11:35:01;99063.59;;;17.70;nan
31225;BME280;17847;31.524;74.366;2023-12-14T11:37:30;99071.75;;;17.64;nan
31225;BME280;17847;31.524;74.366;2023-12-14T11:40:04;99085.00;;;17.59;nan
31225;BME280;17847;31.524;74.366;2023-12-14T11:42:36;99084.78;;;17.60;nan
31225;BME280;17847;31.524;74.366;2023-12-14T11:45:06;99084.59;;;17.43;nan
31225;BME280;17847;31.524;74.366;2023-12-14T11:47:36;99077.47;;;17.49;nan
31225;BME280;17847;31.524;74.366;2023-12-14T11:50:07;99085.13;;;17.34;nan
31225;BME280;17847;31.524;74.366;2023-12-14T11:52:39;99079.34;;;17.19;nan
31225;BME280;17847;31.524;74.366;2023-12-14T11:55:10;99077.41;;;17.26;nan
31225;BME280;17847;31.524;74.366;2023-12-14T11:57:46;99079.63;;;17.29;nan
31225;BME280;17847;31.524;74.366;2023-12-14T12:00:17;99076.81;;;17.24;nan
31225;BME280;17847;31.524;74.366;2023-12-14T12:02:46;99071.78;;;17.16;nan
31225;BME280;17847;31.524;74.366;2023-12-14T12:05:16;99078.78;;;16.98;nan
31225;BME280;17847;31.524;74.366;2023-12-14T12:07:47;99083.69;;;17.01;nan
31225;BME280;17847;31.524;74.366;2023-12-14T12:10:17;99082.50;;;16.97;nan
31225;BME280;17847;31.524;74.366;2023-12-14T12:12:47;99084.72;;;17.00;nan
31225;BME280;17847;31.524;74.366;2023-12-14T12:15:16;99079.34;;;17.00;nan
31225;BME280;17847;31.524;74.366;2023-12-14T12:17:48;99069.44;;;16.89;nan
31225;BME280;17847;31.524;74.366;2023-12-14T12:20:17;99075.97;;;16.75;nan
31225;BME280;17847;31.524;74.366;2023-12-14T12:22:47;99087.38;;;16.82;nan
31225;BME280;17847;31.524;74.366;2023-12-14T12:25:17;99079.31;;;16.71;nan
31225;BME280;17847;31.524;74.366;2023-12-14T12:27:46;99070.09;;;16.67;nan
31225;BME280;17847;31.524;74.366;2023-12-14T12:30:16;99081.81;;;16.66;nan
31225;BME280;17847;31.524;74.366;2023-12-14T12:32:48;99093.03;;;16.31;nan
31225;BME280;17847;31.524;74.366;2023-12-14T12:35:20;99080.00;;;16.16;nan
31225;BME280;17847;31.524;74.366;2023-12-14T12:37:50;99085.97;;;16.18;nan
31225;BME280;17847;31.524;74.366;2023-12-14T12:40:23;99089.00;;;16.22;nan
31225;BME280;17847;31.524;74.366;2023-12-14T12:42:56;99089.16;;;16.02;nan
31225;BME280;17847;31.524;74.366;2023-12-14T12:45:25;99094.28;;;15.79;nan
31225;BME280;17847;31.524;74.366;2023-12-14T12:47:57;99093.41;;;15.85;nan
31225;BME280;17847;31.524;74.366;2023-12-14T12:50:26;99098.00;;;15.78;nan
31225;BME280;17847;31.524;74.366;2023-12-14T12:52:56;99100.88;;;15.77;nan
31225;BME280;17847;31.524;74.366;2023-12-14T12:55:25;99101.69;;;15.77;nan
31225;BME280;17847;31.524;74.366;2023-12-14T12:57:55;99092.84;;;15.77;nan
31225;BME280;17847;31.524;74.366;2023-12-14T13:00:24;99098.63;;;15.73;nan
31225;BME280;17847;31.524;74.366;2023-12-14T13:02:54;99095.91;;;15.80;nan
31225;BME280;17847;31.524;74.366;2023-12-14T13:05:25;99096.56;;;15.76;nan
31225;BME280;17847;31.524;74.366;2023-12-14T13:07:54;99104.78;;;15.74;nan
31225;BME280;17847;31.524;74.366;2023-12-14T13:10:26;99097.72;;;15.55;nan
31225;BME280;17847;31.524;74.366;2023-12-14T13:12:59;99110.88;;;15.56;nan
31225;BME280;17847;31.524;74.366;2023-12-14T13:15:28;99105.91;;;15.60;nan
31225;BME280;17847;31.524;74.366;2023-12-14T13:18:00;99105.53;;;15.56;nan
31225;BME280;17847;31.524;74.366;2023-12-14T13:20:29;99111.94;;;15.36;nan
31225;BME280;17847;31.524;74.366;2023-12-14T13:22:59;99105.38;;;15.38;nan
31225;BME280;17847;31.524;74.366;2023-12-14T13:25:28;99105.19;;;15.40;nan
31225;BME280;17847;31.524;74.366;2023-12-14T13:27:58;99108.66;;;15.40;nan
31225;BME280;17847;31.524;74.366;2023-12-14T13:30:28;99114.63;;;15.36;nan
31225;BME280;17847;31.524;74.366;2023-12-14T13:32:58;99115.50;;;15.29;nan
31225;BME280;17847;31.524;74.366;2023-12-14T13:35:29;99115.31;;;15.24;nan
31225;BME280;17847;31.524;74.366;2023-12-14T13:37:59;99116.56;;;15.22;nan
31225;BME280;17847;31.524;74.366;2023-12-14T13:40:28;99117.78;;;15.26;nan
31225;BME280;17847;31.524;74.366;2023-12-14T13:42:58;99123.50;;;15.23;nan
31225;BME280;17847;31.524;74.366;2023-12-14T13:45:34;99129.41;;;15.32;nan
31225;BME280;17847;31.524;74.366;2023-12-14T13:48:03;99125.59;;;15.14;nan
31225;BME280;17847;31.524;74.366;2023-12-14T13:50:33;99124.19;;;15.12;nan
31225;BME280;17847;31.524;74.366;2023-12-14T13:53:03;99118.03;;;15.11;nan
31225;BME280;17847;31.524;74.366;2023-12-14T13:55:34;99124.22;;;14.99;nan
31225;BME280;17847;31.524;74.366;2023-12-14T13:58:04;99122.19;;;14.88;nan
31225;BME280;17847;31.524;74.366;2023-12-14T14:00:33;99125.50;;;14.90;nan
31225;BME280;17847;31.524;74.366;2023-12-14T14:03:04;99120.75;;;14.92;nan
31225;BME280;17847;31.524;74.366;2023-12-14T14:05:34;99119.50;;;15.01;nan
31225;BME280;17847;31.524;74.366;2023-12-14T14:08:03;99119.97;;;14.91;nan
31225;BME280;17847;31.524;74.366;2023-12-14T14:10:35;99114.81;;;14.90;nan
31225;BME280;17847;31.524;74.366;2023-12-14T14:13:04;99120.50;;;15.06;nan
31225;BME280;17847;31.524;74.366;2023-12-14T14:15:34;99121.19;;;14.89;nan
31225;BME280;17847;31.524;74.366;2023-12-14T14:18:04;99121.59;;;14.86;nan
31225;BME280;17847;31.524;74.366;2023-12-14T14:20:34;99130.81;;;14.83;nan
31225;BME280;17847;31.524;74.366;2023-12-14T14:23:03;99132.50;;;14.71;nan
31225;BME280;17847;31.524;74.366;2023-12-14T14:25:33;99137.44;;;14.61;nan
31225;BME280;17847;31.524;74.366;2023-12-14T14:28:03;99126.94;;;14.79;nan
31225;BME280;17847;31.524;74.366;2023-12-14T14:30:34;99128.00;;;14.65;nan
31225;BME280;17847;31.524;74.366;2023-12-14T14:33:04;99129.63;;;14.66;nan
31225;BME280;17847;31.524;74.366;2023-12-14T14:35:35;99135.38;;;14.76;nan
31225;BME280;17847;31.524;74.366;2023-12-14T14:38:06;99126.31;;;14.90;nan
31225;BME280;17847;31.524;74.366;2023-12-14T14:40:35;99138.84;;;14.70;nan
31225;BME280;17847;31.524;74.366;2023-12-14T14:43:05;99134.19;;;14.46;nan
31225;BME280;17847;31.524;74.366;2023-12-14T14:45:35;99127.63;;;14.42;nan
31225;BME280;17847;31.524;74.366;2023-12-14T14:48:06;99135.41;;;14.50;nan
31225;BME280;17847;31.524;74.366;2023-12-14T14:50:37;99130.69;;;14.52;nan
31225;BME280;17847;31.524;74.366;2023-12-14T14:53:07;99135.41;;;14.50;nan
31225;BME280;17847;31.524;74.366;2023-12-14T14:55:37;99130.47;;;14.27;nan
31225;BME280;17847;31.524;74.366;2023-12-14T14:58:06;99135.44;;;14.36;nan
31225;BME280;17847;31.524;74.366;2023-12-14T15:00:36;99136.22;;;14.30;nan
31225;BME280;17847;31.524;74.366;2023-12-14T15:03:08;99151.00;;;14.39;nan
31225;BME280;17847;31.524;74.366;2023-12-14T15:05:38;99154.66;;;14.32;nan
31225;BME280;17847;31.524;74.366;2023-12-14T15:08:07;99157.34;;;14.38;nan
31225;BME280;17847;31.524;74.366;2023-12-14T15:10:37;99163.09;;;14.35;nan
31225;BME280;17847;31.524;74.366;2023-12-14T15:13:07;99163.69;;;14.24;nan
31225;BME280;17847;31.524;74.366;2023-12-14T15:15:36;99165.09;;;14.27;nan
31225;BME280;17847;31.524;74.366;2023-12-14T15:18:07;99162.03;;;14.17;nan
31225;BME280;17847;31.524;74.366;2023-12-14T15:20:39;99160.59;;;14.14;nan